Time;durP1;ratioP1;P1;durP2;ratioP2;P2;SDS_P1;SDS_P2;PMS_P1;PMS_P2;Temp;Humidity;BMP_temperature;BMP_pressure;BME280_temperature;BME280_humidity;BME280_pressure;Samples;Min_cycle;Max_cycle;Signal;HPM_P1;HPM_P2
2021/11/05 00:02:20;;;;;;;13.93;10.05;;;;;;;11.65;89.19;99655.06;1693326;82;21158;-57
2021/11/05 00:04:47;;;;;;;11.20;10.03;;;;;;;11.66;89.19;99658.63;1691146;82;21329;-56
2021/11/05 00:07:13;;;;;;;12.07;10.28;;;;;;;11.68;89.26;99652.69;1692410;82;21587;-57
2021/11/05 00:09:41;;;;;;;14.13;11.35;;;;;;;11.70;89.34;99669.18;1694297;82;20986;-56
2021/11/05 00:12:08;;;;;;;10.25;9.00;;;;;;;11.72;89.38;99654.28;1693477;82;21384;-57
2021/11/05 00:14:35;;;;;;;12.73;9.63;;;;;;;11.73;89.45;99644.77;1694360;82;21055;-57
2021/11/05 00:17:03;;;;;;;12.45;9.93;;;;;;;11.76;89.43;99647.78;1694962;82;21063;-57
2021/11/05 00:19:30;;;;;;;13.08;10.75;;;;;;;11.78;89.52;99643.18;1693328;82;21114;-57
2021/11/05 00:21:57;;;;;;;11.25;10.18;;;;;;;11.79;89.51;99632.79;1694594;82;21110;-57
2021/11/05 00:24:23;;;;;;;12.85;10.60;;;;;;;11.83;89.53;99628.95;1693955;82;21114;-57
2021/11/05 00:26:49;;;;;;;11.12;9.63;;;;;;;11.85;89.67;99628.88;1693489;82;22271;-56
2021/11/05 00:29:16;;;;;;;9.80;8.83;;;;;;;11.85;89.67;99628.88;1694462;82;21078;-57
2021/11/05 00:31:43;;;;;;;11.38;10.28;;;;;;;11.85;89.60;99639.66;1697546;82;21532;-56
2021/11/05 00:34:09;;;;;;;10.08;9.08;;;;;;;11.87;89.68;99648.55;1693129;82;21132;-57
2021/11/05 00:36:36;;;;;;;10.28;9.18;;;;;;;11.88;89.66;99652.52;1691239;82;22250;-56
2021/11/05 00:39:02;;;;;;;11.22;10.13;;;;;;;11.89;89.63;99657.43;1691790;82;21157;-56
2021/11/05 00:41:29;;;;;;;11.38;10.18;;;;;;;11.91;89.72;99656.88;1691942;82;21093;-55
2021/11/05 00:43:55;;;;;;;12.30;11.00;;;;;;;11.92;89.73;99653.20;1660284;83;21094;-55
2021/11/05 00:46:21;;;;;;;19.48;12.90;;;;;;;11.93;89.76;99653.59;1634797;85;21210;-56
2021/11/05 00:48:48;;;;;;;18.80;13.93;;;;;;;11.94;89.83;99652.16;1634386;85;21118;-56
2021/11/05 00:51:14;;;;;;;17.05;12.35;;;;;;;11.98;89.94;99647.48;1693707;82;21099;-56
2021/11/05 00:53:41;;;;;;;18.87;13.93;;;;;;;12.01;90.01;99654.91;1694805;82;21078;-56
2021/11/05 00:56:07;;;;;;;19.23;14.03;;;;;;;12.03;89.89;99654.35;1692257;82;22112;-56
2021/11/05 00:58:33;;;;;;;18.07;13.10;;;;;;;12.05;89.91;99656.50;1691055;83;21131;-57
2021/11/05 01:01:00;;;;;;;17.77;11.78;;;;;;;12.06;89.93;99650.15;1688579;82;21102;-57
2021/11/05 01:03:26;;;;;;;14.58;11.50;;;;;;;12.08;89.94;99659.00;1695510;82;21062;-56
2021/11/05 01:05:53;;;;;;;17.20;12.82;;;;;;;12.11;90.00;99637.73;1690423;82;21149;-56
2021/11/05 01:08:19;;;;;;;18.25;12.95;;;;;;;12.17;90.08;99633.33;1693674;82;21259;-56
2021/11/05 01:10:45;;;;;;;12.45;10.28;;;;;;;12.17;90.08;99633.33;1692735;82;21870;-56
2021/11/05 01:13:12;;;;;;;15.18;11.05;;;;;;;12.17;89.95;99631.11;1694456;82;21082;-56
2021/11/05 01:15:40;;;;;;;13.32;10.13;;;;;;;12.19;89.97;99632.77;1695204;82;21138;-55
2021/11/05 01:18:06;;;;;;;13.20;10.25;;;;;;;12.20;90.05;99636.34;1695242;83;21050;-56
2021/11/05 01:20:33;;;;;;;14.95;11.05;;;;;;;12.21;90.09;99637.61;1703280;82;20950;-56
2021/11/05 01:22:59;;;;;;;12.00;9.93;;;;;;;12.23;90.13;99628.09;1707413;82;21873;-56
2021/11/05 01:25:26;;;;;;;14.23;10.65;;;;;;;12.24;90.19;99628.48;1705363;82;20934;-56
2021/11/05 01:27:52;;;;;;;16.40;11.75;;;;;;;12.24;90.19;99628.48;1704961;82;20915;-56
2021/11/05 01:30:18;;;;;;;12.28;10.80;;;;;;;12.29;90.11;99620.98;1707699;82;20969;-55
2021/11/05 01:32:46;;;;;;;13.80;11.05;;;;;;;12.29;90.11;99620.98;1706450;82;21401;-56
2021/11/05 01:35:13;;;;;;;12.10;9.83;;;;;;;12.32;90.21;99630.27;1702457;82;20918;-56
2021/11/05 01:37:39;;;;;;;10.78;9.40;;;;;;;12.35;90.30;99634.11;1704465;82;20970;-56
2021/11/05 01:40:07;;;;;;;13.48;9.63;;;;;;;12.36;90.29;99639.91;1704402;82;20962;-56
2021/11/05 01:42:37;;;;;;;14.47;10.00;;;;;;;12.37;90.33;99622.76;1670057;84;20934;-56
2021/11/05 01:45:05;;;;;;;10.58;9.25;;;;;;;12.37;90.33;99622.76;1664420;84;20979;-56
2021/11/05 01:47:31;;;;;;;11.33;10.13;;;;;;;12.38;90.08;99615.93;1661056;84;21905;-56
2021/11/05 01:49:57;;;;;;;15.25;11.18;;;;;;;12.38;90.08;99615.93;1675133;84;20943;-56
2021/11/05 01:52:23;;;;;;;10.38;9.28;;;;;;;12.43;90.20;99625.97;1642682;85;21389;-56
2021/11/05 01:54:50;;;;;;;11.60;9.65;;;;;;;12.44;90.18;99624.14;1658137;84;21097;-56
2021/11/05 01:57:16;;;;;;;14.13;11.05;;;;;;;12.45;90.28;99622.70;1617394;85;21117;-56
2021/11/05 01:59:45;;;;;;;11.80;10.55;;;;;;;12.47;90.16;99629.38;1672325;83;21089;-56
2021/11/05 02:02:11;;;;;;;15.08;9.78;;;;;;;12.48;90.17;99624.38;1624459;84;21136;-56
2021/11/05 02:04:37;;;;;;;11.40;9.88;;;;;;;12.50;90.19;99619.25;1659724;84;21383;-56
2021/11/05 02:07:04;;;;;;;11.95;10.05;;;;;;;12.53;90.32;99614.16;1669567;83;21661;-56
2021/11/05 02:09:31;;;;;;;10.30;9.18;;;;;;;12.57;90.26;99618.44;1666036;83;21077;-56
2021/11/05 02:11:59;;;;;;;13.35;10.68;;;;;;;12.59;90.21;99610.25;1670008;83;21162;-56
2021/11/05 02:14:27;;;;;;;10.20;8.98;;;;;;;12.61;90.26;99611.88;1667479;83;21519;-56
2021/11/05 02:17:00;;;;;;;14.53;10.48;;;;;;;12.61;90.19;99611.88;1659275;84;21517;-56
2021/11/05 02:19:28;;;;;;;12.75;10.70;;;;;;;12.65;90.21;99620.20;1670198;83;21433;-55
2021/11/05 02:21:56;;;;;;;11.75;10.53;;;;;;;12.67;90.16;99624.17;1694263;82;21070;-55
2021/11/05 02:24:23;;;;;;;13.58;9.98;;;;;;;12.68;90.09;99624.05;1694258;82;21739;-57
2021/11/05 02:26:50;;;;;;;12.82;9.13;;;;;;;12.69;90.16;99624.92;1694693;82;21022;-56
2021/11/05 02:29:17;;;;;;;9.70;8.08;;;;;;;12.69;90.02;99631.20;1696956;82;21038;-55
2021/11/05 02:31:44;;;;;;;12.95;9.05;;;;;;;12.72;90.00;99638.27;1694417;82;21316;-56
2021/11/05 02:34:10;;;;;;;12.60;10.13;;;;;;;12.73;89.96;99641.36;1693428;82;21540;-57
2021/11/05 02:36:37;;;;;;;12.07;9.83;;;;;;;12.72;89.90;99644.53;1693664;82;21474;-57
2021/11/05 02:39:07;;;;;;;10.38;9.38;;;;;;;12.74;89.88;99649.86;1660652;84;21491;-56
2021/11/05 02:41:37;;;;;;;12.18;9.73;;;;;;;12.74;89.87;99648.02;1636428;85;21126;-55
2021/11/05 02:44:04;;;;;;;11.75;10.25;;;;;;;12.77;89.90;99646.95;1637470;85;21437;-56
2021/11/05 02:46:31;;;;;;;12.07;9.78;;;;;;;12.78;89.84;99646.87;1694771;82;21121;-56
2021/11/05 02:49:02;;;;;;;10.75;9.63;;;;;;;12.79;89.83;99645.03;1694741;82;21173;-56
2021/11/05 02:51:29;;;;;;;10.28;9.38;;;;;;;12.81;89.79;99643.13;1695741;82;21052;-56
2021/11/05 02:53:55;;;;;;;11.55;9.03;;;;;;;12.82;89.78;99644.87;1693377;82;21094;-57
2021/11/05 02:56:23;;;;;;;11.78;10.58;;;;;;;12.80;89.77;99640.91;1691946;82;21085;-56
2021/11/05 02:58:50;;;;;;;12.37;9.75;;;;;;;12.84;89.89;99634.34;1694226;82;21056;-56
2021/11/05 03:01:18;;;;;;;12.98;9.65;;;;;;;12.88;89.89;99637.74;1696397;82;21183;-56
2021/11/05 03:03:44;;;;;;;14.83;9.98;;;;;;;12.89;89.78;99640.36;1693642;82;21488;-56
2021/11/05 03:06:10;;;;;;;12.18;8.80;;;;;;;12.92;89.79;99649.25;1693895;82;21454;-57
2021/11/05 03:08:37;;;;;;;13.15;9.98;;;;;;;12.93;89.68;99644.24;1689488;82;21079;-56
2021/11/05 03:11:03;;;;;;;12.43;10.20;;;;;;;12.93;89.58;99642.37;1692672;82;21126;-57
2021/11/05 03:13:30;;;;;;;14.50;10.93;;;;;;;12.93;89.62;99638.84;1676330;82;21164;-57
2021/11/05 03:15:57;;;;;;;17.80;10.32;;;;;;;12.96;89.63;99633.23;1693496;82;21078;-56
2021/11/05 03:18:30;;;;;;;12.43;9.28;;;;;;;12.97;89.59;99628.22;1695227;82;21481;-57
2021/11/05 03:20:52;;;;;;;12.37;10.53;;;;;;;12.99;89.57;99631.70;1694795;82;21078;-56
2021/11/05 03:23:18;;;;;;;12.28;11.05;;;;;;;13.00;89.62;99622.64;1696069;82;21090;-57
2021/11/05 03:25:44;;;;;;;18.98;12.05;;;;;;;13.02;89.80;99622.05;1664081;84;21447;-56
2021/11/05 03:28:11;;;;;;;17.60;12.78;;;;;;;13.01;89.55;99619.86;1661314;84;21576;-57
2021/11/05 03:30:37;;;;;;;20.27;14.28;;;;;;;13.01;89.52;99623.03;1663616;84;21485;-57
2021/11/05 03:33:04;;;;;;;17.30;14.13;;;;;;;13.01;89.53;99617.16;1637701;85;21086;-57
2021/11/05 03:35:30;;;;;;;22.00;13.43;;;;;;;13.01;89.62;99618.50;1657096;84;21075;-56
2021/11/05 03:37:56;;;;;;;19.27;13.98;;;;;;;13.02;89.68;99616.16;1657917;84;21144;-56
2021/11/05 03:40:23;;;;;;;16.95;13.43;;;;;;;13.04;89.71;99619.65;1658408;83;21399;-56
2021/11/05 03:42:51;;;;;;;20.80;14.07;;;;;;;13.05;89.74;99624.09;1693923;82;21626;-56
2021/11/05 03:45:17;;;;;;;24.32;16.12;;;;;;;13.07;89.81;99624.01;1693917;82;21693;-57
2021/11/05 03:47:44;;;;;;;20.17;14.13;;;;;;;13.08;89.89;99636.08;1698170;82;21549;-57
2021/11/05 03:50:12;;;;;;;21.87;15.25;;;;;;;13.11;89.93;99628.25;1696455;82;22896;-57
2021/11/05 03:52:40;;;;;;;17.60;13.30;;;;;;;13.13;89.96;99626.33;1696130;83;21101;-57
2021/11/05 03:55:07;;;;;;;19.87;14.35;;;;;;;13.14;90.01;99627.63;1692619;82;21317;-56
2021/11/05 03:57:33;;;;;;;19.75;14.58;;;;;;;13.17;90.09;99630.64;1692394;82;21125;-56
2021/11/05 04:00:00;;;;;;;24.18;15.53;;;;;;;13.19;90.11;99625.50;1691180;82;21460;-56
2021/11/05 04:02:26;;;;;;;20.82;14.80;;;;;;;13.22;90.09;99628.52;1691720;82;21638;-56
2021/11/05 04:04:55;;;;;;;20.15;13.98;;;;;;;13.25;90.08;99626.98;1689719;82;21599;-57
2021/11/05 04:07:22;;;;;;;23.65;14.07;;;;;;;13.28;90.08;99632.18;1696474;82;20994;-57
2021/11/05 04:09:49;;;;;;;28.20;15.83;;;;;;;13.30;90.02;99628.04;1693540;82;21098;-57
2021/11/05 04:12:15;;;;;;;17.82;13.62;;;;;;;13.34;90.09;99627.77;1695317;82;21686;-56
2021/11/05 04:14:42;;;;;;;25.77;15.05;;;;;;;13.36;89.97;99632.58;1696535;82;21498;-56
2021/11/05 04:17:09;;;;;;;24.80;15.90;;;;;;;13.39;89.86;99632.88;1695288;82;21078;-55
2021/11/05 04:19:35;;;;;;;20.75;15.63;;;;;;;13.41;89.75;99631.83;1695181;82;21086;-55
2021/11/05 04:22:01;;;;;;;24.40;15.55;;;;;;;13.42;89.68;99620.06;1675764;82;21121;-56
2021/11/05 04:24:28;;;;;;;25.77;16.57;;;;;;;13.43;89.60;99620.45;1695476;82;20990;-55
2021/11/05 04:26:54;;;;;;;21.15;15.13;;;;;;;13.43;89.57;99617.75;1695636;82;21722;-56
2021/11/05 04:29:21;;;;;;;18.73;14.53;;;;;;;13.44;89.47;99613.21;1695023;82;21008;-56
2021/11/05 04:34:04;;;;;;;19.47;15.30;;;;;;;13.50;89.37;99616.39;1845408;75;25944;-57
2021/11/05 04:36:33;;;;;;;20.17;15.60;;;;;;;13.44;89.27;99620.81;1848192;75;21061;-57
2021/11/05 04:38:59;;;;;;;28.07;16.93;;;;;;;13.42;89.24;99624.12;1846749;75;22180;-57
2021/11/05 04:41:25;;;;;;;25.20;16.52;;;;;;;13.44;89.19;99623.52;1847399;76;20915;-57
2021/11/05 04:43:52;;;;;;;22.50;16.15;;;;;;;13.44;89.19;99609.16;1849938;75;20907;-57
2021/11/05 04:46:18;;;;;;;19.20;14.95;;;;;;;13.45;89.17;99618.98;1848735;75;20911;-57
2021/11/05 04:48:44;;;;;;;22.70;15.03;;;;;;;13.45;89.11;99610.39;1851046;75;21466;-57
2021/11/05 04:51:11;;;;;;;20.08;16.07;;;;;;;13.44;89.02;99605.94;1850731;75;21096;-57
2021/11/05 04:53:37;;;;;;;25.30;15.88;;;;;;;13.44;89.00;99618.62;1846700;76;20962;-57
2021/11/05 04:56:04;;;;;;;19.67;16.05;;;;;;;13.44;88.99;99627.56;1844732;75;20915;-57
2021/11/05 04:58:31;;;;;;;23.27;16.23;;;;;;;13.45;88.98;99636.55;1850519;75;20895;-56
2021/11/05 05:00:57;;;;;;;24.90;16.12;;;;;;;13.45;88.98;99636.07;1847199;75;20915;-57
2021/11/05 05:03:23;;;;;;;24.92;16.67;;;;;;;13.47;88.96;99631.92;1851086;76;21044;-57
2021/11/05 05:05:50;;;;;;;21.85;15.70;;;;;;;13.48;88.91;99624.20;1842740;76;21014;-57
2021/11/05 05:08:16;;;;;;;22.17;16.55;;;;;;;13.49;88.89;99635.41;1846096;75;21448;-57
2021/11/05 05:10:43;;;;;;;23.50;16.62;;;;;;;13.51;88.84;99631.66;1843478;76;21717;-57
2021/11/05 05:13:11;;;;;;;21.20;14.93;;;;;;;13.52;88.86;99632.53;1848818;76;20982;-57
2021/11/05 05:15:37;;;;;;;23.47;16.32;;;;;;;13.53;88.79;99624.30;1848580;76;20997;-57
2021/11/05 05:18:04;;;;;;;22.73;15.70;;;;;;;13.55;88.78;99616.09;1848209;76;21029;-57
2021/11/05 05:20:30;;;;;;;29.92;18.87;;;;;;;13.56;88.74;99621.89;1845214;76;21068;-57
2021/11/05 05:22:57;;;;;;;23.60;17.73;;;;;;;13.55;88.73;99625.08;1844451;75;20988;-57
2021/11/05 05:25:24;;;;;;;24.35;15.95;;;;;;;13.54;88.68;99617.92;1844083;75;21123;-57
2021/11/05 05:27:50;;;;;;;31.02;17.52;;;;;;;13.54;88.63;99624.69;1846987;75;21845;-56
2021/11/05 05:30:18;;;;;;;23.90;16.57;;;;;;;13.54;88.60;99626.04;1846282;76;21686;-56
2021/11/05 05:32:46;;;;;;;27.87;17.73;;;;;;;13.55;88.59;99622.38;1830351;75;20978;-57
2021/11/05 05:35:13;;;;;;;27.45;18.05;;;;;;;13.56;88.64;99630.88;1831180;77;20890;-56
2021/11/05 05:37:40;;;;;;;23.92;16.57;;;;;;;13.57;88.59;99637.16;1834788;77;21030;-57
2021/11/05 05:40:07;;;;;;;20.27;15.90;;;;;;;13.56;88.61;99638.12;1831275;77;21443;-56
2021/11/05 05:42:34;;;;;;;28.55;18.57;;;;;;;13.58;88.70;99644.31;1831616;77;21041;-57
2021/11/05 05:45:00;;;;;;;26.73;16.62;;;;;;;13.59;88.63;99650.98;1831647;77;21032;-56
2021/11/05 05:47:27;;;;;;;25.97;17.02;;;;;;;13.62;88.60;99651.25;1830418;77;21041;-57
2021/11/05 05:49:53;;;;;;;21.50;16.07;;;;;;;13.63;88.61;99649.80;1829926;77;21061;-56
2021/11/05 05:52:20;;;;;;;21.45;16.55;;;;;;;13.64;88.62;99650.68;1827327;77;21472;-56
2021/11/05 05:54:46;;;;;;;28.75;17.82;;;;;;;13.67;88.57;99664.02;1826119;77;21269;-56
2021/11/05 05:57:12;;;;;;;25.17;17.05;;;;;;;13.70;88.52;99671.92;1823668;77;21058;-57
2021/11/05 05:59:39;;;;;;;21.62;16.10;;;;;;;13.71;88.48;99676.86;1829014;77;21081;-56
2021/11/05 06:02:06;;;;;;;23.05;16.17;;;;;;;13.72;88.45;99676.77;1830480;76;21125;-55
2021/11/05 06:05:35;;;;;;;22.13;16.87;;;;;;;13.79;88.37;99674.06;1789994;78;27102;-56
2021/11/05 06:08:03;;;;;;;27.17;19.15;;;;;;;13.74;88.31;99664.02;1768457;78;21014;-55
2021/11/05 06:10:29;;;;;;;26.60;17.37;;;;;;;13.76;88.30;99677.45;1767318;79;21152;-56
2021/11/05 06:13:48;;;;;;;25.17;18.47;;;;;;;13.80;88.19;99672.23;1793398;78;27102;-57
2021/11/05 06:16:14;;;;;;;24.50;17.65;;;;;;;13.77;88.17;99680.55;1768076;79;20979;-57
2021/11/05 06:18:40;;;;;;;29.40;18.40;;;;;;;13.77;88.18;99676.02;1766531;79;21570;-56
2021/11/05 06:21:07;;;;;;;26.10;17.23;;;;;;;13.78;88.17;99668.77;1765657;79;20883;-56
2021/11/05 06:23:33;;;;;;;29.10;17.70;;;;;;;13.79;88.15;99667.78;1766982;79;20930;-56
2021/11/05 06:26:01;;;;;;;27.02;16.73;;;;;;;13.80;88.13;99663.63;1769211;79;20897;-56
2021/11/05 06:28:27;;;;;;;25.20;17.67;;;;;;;13.82;88.16;99670.30;1768740;79;21380;-56
2021/11/05 06:30:54;;;;;;;22.50;16.57;;;;;;;13.84;88.09;99672.44;1768447;79;21381;-57
2021/11/05 06:33:20;;;;;;;26.05;17.00;;;;;;;13.86;88.09;99674.09;1763714;79;20938;-56
2021/11/05 06:35:47;;;;;;;26.40;17.82;;;;;;;13.89;88.03;99666.23;1765219;79;21104;-56
2021/11/05 06:38:14;;;;;;;24.18;18.20;;;;;;;13.92;88.00;99668.77;1764580;79;21144;-56
2021/11/05 06:40:41;;;;;;;27.27;17.40;;;;;;;13.93;87.93;99660.55;1760116;79;21100;-57
2021/11/05 06:43:08;;;;;;;25.72;18.05;;;;;;;13.97;87.92;99658.50;1769054;79;21436;-56
2021/11/05 06:45:34;;;;;;;32.85;19.92;;;;;;;13.99;87.92;99661.51;1764711;79;20914;-56
2021/11/05 06:48:01;;;;;;;31.35;19.37;;;;;;;14.05;87.85;99656.66;1765431;79;21466;-57
2021/11/05 06:50:27;;;;;;;25.25;16.62;;;;;;;14.08;87.79;99647.00;1763406;79;22278;-56
2021/11/05 06:52:53;;;;;;;30.12;18.85;;;;;;;14.10;87.68;99648.66;1761450;79;21041;-56
2021/11/05 06:55:20;;;;;;;26.07;18.10;;;;;;;14.13;87.64;99655.69;1760754;79;21241;-56
2021/11/05 06:57:47;;;;;;;28.10;19.90;;;;;;;14.16;87.58;99663.14;1762561;79;21085;-56
2021/11/05 07:05:52;;;;;;;29.60;19.77;;;;;;;14.29;87.20;99662.72;1792075;77;25735;-56
2021/11/05 07:08:19;;;;;;;28.95;20.10;;;;;;;14.26;87.09;99675.12;1768979;79;21565;-55
2021/11/05 07:10:47;;;;;;;33.18;20.50;;;;;;;14.25;86.98;99672.02;1769198;79;21130;-55
2021/11/05 07:13:13;;;;;;;29.15;18.73;;;;;;;14.25;86.86;99681.50;1764747;79;20907;-56
2021/11/05 07:15:40;;;;;;;26.35;17.30;;;;;;;14.23;86.83;99678.02;1770370;79;20972;-57
2021/11/05 07:18:06;;;;;;;30.15;19.15;;;;;;;14.24;86.81;99685.66;1776464;79;20917;-56
2021/11/05 07:20:35;;;;;;;29.32;20.08;;;;;;;14.25;86.81;99677.92;1767010;78;20954;-57
2021/11/05 07:23:01;;;;;;;33.85;20.05;;;;;;;14.26;86.72;99671.05;1771374;79;21779;-57
2021/11/05 07:25:27;;;;;;;32.15;19.42;;;;;;;14.27;86.63;99675.98;1771176;78;21249;-55
2021/11/05 07:27:54;;;;;;;29.25;18.82;;;;;;;14.28;86.58;99679.95;1775480;78;21941;-55
2021/11/05 07:30:20;;;;;;;31.87;18.67;;;;;;;14.31;86.51;99682.93;1767436;79;21429;-56
2021/11/05 07:32:48;;;;;;;30.68;20.32;;;;;;;14.33;86.46;99694.53;1755200;78;20959;-56
2021/11/05 07:35:17;;;;;;;30.62;19.75;;;;;;;14.35;86.42;99693.48;1743729;80;21056;-56
2021/11/05 07:37:44;;;;;;;28.98;19.87;;;;;;;14.42;86.37;99694.46;1746905;80;21007;-58
2021/11/05 07:40:11;;;;;;;27.40;19.23;;;;;;;14.46;86.16;99687.38;1740601;80;21090;-56
2021/11/05 07:42:38;;;;;;;24.87;19.27;;;;;;;14.50;86.03;99675.88;1742266;80;21121;-57
2021/11/05 07:45:06;;;;;;;31.23;19.95;;;;;;;14.55;85.97;99694.03;1744540;80;21126;-56
2021/11/05 07:47:34;;;;;;;27.77;22.00;;;;;;;14.60;85.73;99698.69;1737191;80;21563;-56
2021/11/05 07:50:01;;;;;;;27.98;20.08;;;;;;;14.63;85.49;99699.84;1742427;80;21705;-56
2021/11/05 07:52:27;;;;;;;32.73;21.00;;;;;;;14.64;85.30;99700.20;1746183;80;22206;-56
2021/11/05 07:54:53;;;;;;;21.35;17.55;;;;;;;14.66;85.18;99698.27;1739621;80;21672;-56
2021/11/05 07:57:20;;;;;;;34.35;21.48;;;;;;;14.68;85.02;99692.27;1742316;80;21066;-57
2021/11/05 07:59:46;;;;;;;33.67;22.40;;;;;;;14.68;84.89;99694.98;1746767;80;21127;-56
2021/11/05 08:02:13;;;;;;;28.90;22.15;;;;;;;14.68;84.82;99697.69;1740699;80;21054;-57
2021/11/05 08:04:40;;;;;;;31.37;21.68;;;;;;;14.69;84.84;99705.73;1735389;80;21014;-55
2021/11/05 08:07:06;;;;;;;38.48;21.17;;;;;;;14.72;84.75;99719.05;1730786;80;21067;-56
2021/11/05 08:09:32;;;;;;;31.17;20.95;;;;;;;14.74;84.57;99734.73;1726958;80;21095;-56
2021/11/05 08:11:59;;;;;;;25.30;19.77;;;;;;;14.75;84.40;99726.98;1732652;80;21237;-56
2021/11/05 08:14:25;;;;;;;26.50;20.10;;;;;;;14.76;84.31;99723.80;1731913;80;21062;-56
2021/11/05 08:16:52;;;;;;;28.80;19.70;;;;;;;14.76;84.22;99724.67;1724184;80;21099;-57
2021/11/05 08:19:18;;;;;;;27.42;18.23;;;;;;;14.78;84.16;99729.98;1729272;80;21761;-56
2021/11/05 08:21:44;;;;;;;29.20;20.15;;;;;;;14.81;84.17;99723.48;1730762;80;21125;-56
2021/11/05 08:24:10;;;;;;;30.25;21.90;;;;;;;14.84;84.12;99727.35;1737454;80;21145;-56
2021/11/05 08:26:37;;;;;;;28.95;20.95;;;;;;;14.86;83.99;99722.23;1724227;80;21118;-57
2021/11/05 08:29:04;;;;;;;29.52;20.37;;;;;;;14.88;83.88;99719.42;1729043;80;21687;-57
2021/11/05 08:31:30;;;;;;;27.45;19.90;;;;;;;14.89;83.69;99715.70;1733538;80;21107;-57
2021/11/05 08:33:57;;;;;;;28.62;19.48;;;;;;;14.89;83.58;99720.64;1731438;80;21594;-56
2021/11/05 08:36:24;;;;;;;28.95;19.62;;;;;;;14.91;83.51;99719.19;1729539;80;21156;-56
2021/11/05 08:38:51;;;;;;;33.65;21.37;;;;;;;14.92;83.50;99719.09;1732932;80;21528;-56
2021/11/05 08:41:18;;;;;;;51.33;36.40;;;;;;;14.97;83.47;99712.03;1726032;80;21095;-56
2021/11/05 08:43:47;;;;;;;37.30;27.98;;;;;;;15.01;83.43;99706.77;1730244;80;21505;-56
2021/11/05 08:46:16;;;;;;;26.27;20.77;;;;;;;15.06;83.41;99704.13;1728054;80;21046;-55
2021/11/05 08:48:44;;;;;;;24.20;20.85;;;;;;;15.12;83.35;99712.35;1732704;80;21391;-55
2021/11/05 08:51:11;;;;;;;25.75;19.35;;;;;;;15.18;83.20;99716.48;1733467;80;20948;-56
2021/11/05 08:53:38;;;;;;;28.60;20.08;;;;;;;15.21;83.01;99709.02;1730153;80;20877;-55
2021/11/05 08:56:05;;;;;;;26.93;19.67;;;;;;;15.24;82.75;99703.37;1732266;80;20957;-56
2021/11/05 08:58:32;;;;;;;25.07;18.97;;;;;;;15.27;82.60;99698.23;1728296;80;21059;-56
2021/11/05 09:00:58;;;;;;;23.60;19.00;;;;;;;15.30;82.42;99683.12;1732261;80;21155;-56
2021/11/05 09:03:25;;;;;;;29.23;19.37;;;;;;;15.33;82.25;99688.31;1731073;80;20978;-56
2021/11/05 09:05:52;;;;;;;29.00;17.80;;;;;;;15.37;82.17;99696.63;1739031;80;21059;-55
2021/11/05 09:08:18;;;;;;;28.60;18.77;;;;;;;15.42;82.17;99712.96;1740099;80;21523;-57
2021/11/05 09:10:44;;;;;;;24.67;18.17;;;;;;;15.49;82.09;99718.34;1739917;80;21137;-56
2021/11/05 09:13:11;;;;;;;26.70;18.52;;;;;;;15.55;81.93;99722.53;1744435;80;21136;-56
2021/11/05 09:15:38;;;;;;;26.77;18.45;;;;;;;15.62;81.78;99716.19;1741196;80;22139;-55
2021/11/05 09:18:07;;;;;;;29.05;20.23;;;;;;;15.66;81.56;99714.49;1738030;80;21053;-56
2021/11/05 09:20:34;;;;;;;25.80;19.20;;;;;;;15.68;81.15;99703.05;1740450;80;21341;-56
2021/11/05 09:23:01;;;;;;;25.37;19.57;;;;;;;15.69;80.77;99698.50;1739949;80;21067;-55
2021/11/05 09:25:27;;;;;;;27.65;17.30;;;;;;;15.71;80.68;99697.42;1741999;80;22348;-55
2021/11/05 09:27:54;;;;;;;21.37;17.32;;;;;;;15.74;80.50;99703.09;1739782;80;22018;-56
2021/11/05 09:30:23;;;;;;;25.85;20.65;;;;;;;15.78;80.46;99703.28;1740171;80;21897;-56
2021/11/05 09:32:48;;;;;;;23.50;19.20;;;;;;;15.84;80.39;99702.84;1737241;80;21061;-56
2021/11/05 09:35:14;;;;;;;29.40;21.00;;;;;;;15.91;80.34;99703.30;1740933;80;21414;-56
2021/11/05 09:37:41;;;;;;;21.40;17.75;;;;;;;15.97;80.22;99694.71;1742446;80;21551;-57
2021/11/05 09:40:11;;;;;;;27.85;21.05;;;;;;;16.02;79.94;99688.45;1739019;80;21536;-55
2021/11/05 09:42:40;;;;;;;26.35;20.70;;;;;;;16.06;79.69;99684.55;1746098;80;21480;-56
2021/11/05 09:45:07;;;;;;;26.00;19.35;;;;;;;16.07;79.41;99685.81;1716203;81;20928;-56
2021/11/05 09:47:35;;;;;;;28.23;21.33;;;;;;;16.07;79.18;99684.45;1746097;80;20932;-56
2021/11/05 09:50:04;;;;;;;24.52;18.90;;;;;;;16.10;79.01;99658.91;1743601;80;21113;-55
2021/11/05 09:52:31;;;;;;;27.60;20.68;;;;;;;16.11;78.81;99652.01;1743236;80;21513;-56
2021/11/05 09:54:59;;;;;;;31.05;20.90;;;;;;;16.14;78.60;99642.78;1721053;80;20951;-55
2021/11/05 09:57:25;;;;;;;22.45;18.70;;;;;;;16.18;78.48;99640.20;1743777;80;21433;-57
2021/11/05 09:59:51;;;;;;;22.42;18.57;;;;;;;16.22;78.35;99647.16;1743490;80;20970;-55
2021/11/05 10:02:18;;;;;;;23.42;18.65;;;;;;;16.28;78.29;99658.92;1745677;80;21050;-55
2021/11/05 10:04:45;;;;;;;28.07;21.77;;;;;;;16.36;78.17;99663.30;1742786;80;20951;-57
2021/11/05 10:07:11;;;;;;;21.45;18.92;;;;;;;16.43;77.97;99663.23;1734268;80;20895;-56
2021/11/05 10:09:41;;;;;;;20.52;17.90;;;;;;;16.51;77.68;99664.02;1737034;80;21869;-56
2021/11/05 10:12:12;;;;;;;28.15;18.48;;;;;;;16.58;77.51;99667.55;1703669;82;20931;-56
2021/11/05 10:14:39;;;;;;;21.57;16.93;;;;;;;16.64;77.17;99667.13;1736867;80;21110;-56
2021/11/05 10:17:09;;;;;;;24.05;17.37;;;;;;;16.71;76.70;99677.53;1738102;80;20892;-56
2021/11/05 10:19:58;;;;;;;30.40;18.50;;;;;;;16.73;76.40;99677.80;1740611;80;20969;-56
2021/11/05 10:22:49;;;;;;;22.35;16.45;;;;;;;16.76;76.29;99679.43;1723231;80;21055;-57
2021/11/05 10:25:34;;;;;;;18.98;16.55;;;;;;;16.79;76.15;99675.97;1738335;80;21307;-56
2021/11/05 10:28:09;;;;;;;19.23;16.35;;;;;;;16.78;75.78;99666.56;1739426;80;21094;-57
2021/11/05 10:30:47;;;;;;;16.32;14.60;;;;;;;16.76;75.51;99659.88;1734483;80;21528;-55
2021/11/05 10:33:18;;;;;;;21.52;17.45;;;;;;;16.74;75.26;99646.05;1670709;83;21512;-56
2021/11/05 10:35:48;;;;;;;24.70;17.55;;;;;;;16.68;75.05;99645.13;1736773;80;21456;-55
2021/11/05 10:38:16;;;;;;;20.32;16.30;;;;;;;16.60;75.04;99650.63;1736748;80;21035;-55
2021/11/05 10:40:50;;;;;;;24.63;18.70;;;;;;;16.56;75.10;99663.20;1744802;80;21146;-56
2021/11/05 10:43:30;;;;;;;23.40;17.67;;;;;;;16.53;75.15;99655.27;1742509;80;20909;-57
2021/11/05 10:45:57;;;;;;;21.65;17.35;;;;;;;16.51;75.32;99641.80;1735304;80;21070;-56
2021/11/05 10:48:27;;;;;;;18.30;15.05;;;;;;;16.51;75.47;99637.72;1737570;80;20938;-56
2021/11/05 10:50:57;;;;;;;27.40;20.15;;;;;;;16.52;75.54;99619.08;1734560;80;21094;-56
2021/11/05 10:53:31;;;;;;;16.77;14.98;;;;;;;16.55;75.67;99627.02;1736799;80;21121;-55
2021/11/05 10:56:04;;;;;;;;;;;;;;;16.59;75.74;99640.73;1716071;80;21045;-57
2021/11/05 10:58:43;;;;;;;15.88;14.05;;;;;;;16.67;75.69;99644.78;1736666;80;20241;-56
2021/11/05 11:01:15;;;;;;;17.70;13.85;;;;;;;16.69;75.63;99654.53;1737593;80;21426;-56
2021/11/05 11:03:53;;;;;;;18.23;15.68;;;;;;;16.71;75.41;99651.22;1739948;80;21400;-57
2021/11/05 11:06:31;;;;;;;17.73;14.78;;;;;;;16.73;75.30;99653.34;1740921;80;21172;-56
2021/11/05 11:09:05;;;;;;;20.08;16.12;;;;;;;16.74;75.19;99655.08;1742340;80;20981;-57
2021/11/05 11:11:44;;;;;;;19.82;15.83;;;;;;;16.76;75.15;99653.61;1743556;80;21051;-57
2021/11/05 11:14:17;;;;;;;19.02;15.93;;;;;;;16.78;75.14;99651.62;1740945;80;21518;-56
2021/11/05 11:16:59;;;;;;;25.40;15.75;;;;;;;16.79;74.99;99653.36;1740002;80;21515;-57
2021/11/05 11:19:28;;;;;;;18.55;13.88;;;;;;;16.79;75.02;99660.16;1741995;80;21664;-56
2021/11/05 11:22:05;;;;;;;23.15;13.55;;;;;;;16.79;74.96;99656.08;1740328;80;21030;-57
2021/11/05 11:24:34;;;;;;;15.40;12.80;;;;;;;16.80;74.89;99660.53;1743347;80;21090;-57
2021/11/05 11:27:02;;;;;;;21.65;13.13;;;;;;;16.80;74.80;99670.91;1739241;80;21028;-56
2021/11/05 11:29:29;;;;;;;20.80;14.80;;;;;;;16.81;74.63;99666.34;1744377;80;21650;-56
2021/11/05 11:31:58;;;;;;;20.32;15.80;;;;;;;16.81;74.59;99670.42;1744054;80;21545;-57